OCN142 EDDM-FYWH
Flight info
| Callsign | OCN142 |
|---|---|
| Flight time | N/A |
| Altitude | 35000 |
| Route | TURBU7W TURBU Y107 TOBSO DCT BAKOR DCT VIC DCT KOPER DCT LUMAV DCT TINTO DCT BULAR/N0474F370 DCT ABDAB/N0474F360 UL44 TUC UW411 EBA UG362 BARKA/N0470F370 UA605 DJA UB730 DIR UA607 FL/N0470F390 UA403 BZ DCT KSA UT943 IMVEX/N0462F400 UT943 UNLOK/N0462F390 UT943 VEDRY |
| Aircraft | A333/H-SDE2E3FGHIJ3J4J5LM1OP2RWXYZ/LB2D1 |
Departure
| Time | N/A |
|---|---|
| Airport | Munich Airport (EDDM) |
Arrival
| Time | 2026-04-15 06:00 |
|---|---|
| Airport | Hosea Kutako International Airport (FYWH) |
| Time | Latitude | Longitude | Altitude | Speed | Heading |
|---|---|---|---|---|---|
| 2026-04-15 05:36 | -22.31541 | 17.19603 | 25326 ft | 448 kts | 328° |
| 2026-04-15 05:37 | -22.29717 | 17.18497 | 24931 ft | 445 kts | 328° |
| 2026-04-15 05:37 | -22.27029 | 17.16860 | 24358 ft | 441 kts | 328° |
| 2026-04-15 05:37 | -22.24371 | 17.15235 | 23805 ft | 437 kts | 328° |
| 2026-04-15 05:37 | -22.21742 | 17.13619 | 23164 ft | 433 kts | 328° |
| 2026-04-15 05:38 | -22.19131 | 17.12012 | 22529 ft | 430 kts | 328° |
| 2026-04-15 05:38 | -22.16566 | 17.10428 | 21887 ft | 419 kts | 328° |
| 2026-04-15 05:38 | -22.14086 | 17.08896 | 21287 ft | 403 kts | 328° |
| 2026-04-15 05:38 | -22.11693 | 17.07417 | 20695 ft | 390 kts | 328° |
| 2026-04-15 05:39 | -22.09369 | 17.05983 | 20108 ft | 379 kts | 328° |
| 2026-04-15 05:39 | -22.07114 | 17.04588 | 19530 ft | 369 kts | 328° |
| 2026-04-15 05:39 | -22.04917 | 17.03214 | 18969 ft | 361 kts | 328° |
| 2026-04-15 05:39 | -22.02774 | 17.01866 | 18420 ft | 353 kts | 328° |
| 2026-04-15 05:40 | -22.00672 | 17.00542 | 17778 ft | 347 kts | 328° |
| 2026-04-15 05:40 | -21.98610 | 16.99244 | 17152 ft | 340 kts | 328° |
| 2026-04-15 05:40 | -21.96581 | 16.97968 | 16533 ft | 335 kts | 328° |
| 2026-04-15 05:40 | -21.94612 | 16.96732 | 15951 ft | 330 kts | 328° |
| 2026-04-15 05:41 | -21.92642 | 16.95472 | 15354 ft | 330 kts | 324° |
| 2026-04-15 05:41 | -21.91011 | 16.93750 | 14754 ft | 331 kts | 302° |
| 2026-04-15 05:41 | -21.90112 | 16.91479 | 14183 ft | 332 kts | 281° |
| 2026-04-15 05:41 | -21.90085 | 16.89003 | 13572 ft | 334 kts | 259° |
| 2026-04-15 05:42 | -21.90902 | 16.86662 | 12943 ft | 337 kts | 242° |
| 2026-04-15 05:42 | -21.92109 | 16.84490 | 12389 ft | 337 kts | 238° |
| 2026-04-15 05:42 | -21.93395 | 16.82393 | 11919 ft | 335 kts | 234° |
| 2026-04-15 05:42 | -21.95001 | 16.80513 | 11644 ft | 351 kts | 221° |
| 2026-04-15 05:43 | -21.97123 | 16.79152 | 11391 ft | 360 kts | 200° |
| 2026-04-15 05:43 | -21.99590 | 16.78723 | 11149 ft | 361 kts | 179° |
| 2026-04-15 05:43 | -22.02084 | 16.79026 | 10918 ft | 361 kts | 169° |
| 2026-04-15 05:43 | -22.04525 | 16.79638 | 10683 ft | 361 kts | 165° |
| 2026-04-15 05:44 | -22.06932 | 16.80397 | 10442 ft | 360 kts | 163° |
| 2026-04-15 05:44 | -22.09320 | 16.81201 | 10219 ft | 359 kts | 162° |
| 2026-04-15 05:44 | -22.11685 | 16.81993 | 10022 ft | 349 kts | 163° |
| 2026-04-15 05:44 | -22.13941 | 16.82724 | 9779 ft | 328 kts | 163° |
| 2026-04-15 05:45 | -22.16069 | 16.83391 | 9507 ft | 309 kts | 163° |
| 2026-04-15 05:45 | -22.18075 | 16.84003 | 9388 ft | 289 kts | 164° |
| 2026-04-15 05:45 | -22.19971 | 16.84571 | 9378 ft | 279 kts | 164° |
| 2026-04-15 05:45 | -22.21833 | 16.85125 | 9380 ft | 277 kts | 164° |
| 2026-04-15 05:46 | -22.23694 | 16.85676 | 9371 ft | 278 kts | 164° |
| 2026-04-15 05:46 | -22.25565 | 16.86230 | 9363 ft | 279 kts | 165° |
| 2026-04-15 05:46 | -22.27440 | 16.86786 | 9371 ft | 280 kts | 164° |
| 2026-04-15 05:46 | -22.29314 | 16.87341 | 9369 ft | 279 kts | 164° |
| 2026-04-15 05:47 | -22.31189 | 16.87897 | 9369 ft | 279 kts | 164° |
| 2026-04-15 05:47 | -22.33062 | 16.88452 | 9372 ft | 279 kts | 164° |
| 2026-04-15 05:47 | -22.34936 | 16.89006 | 9369 ft | 279 kts | 164° |
| 2026-04-15 05:47 | -22.36811 | 16.89561 | 9373 ft | 279 kts | 164° |
| 2026-04-15 05:48 | -22.38683 | 16.90116 | 9379 ft | 279 kts | 164° |
| 2026-04-15 05:48 | -22.40554 | 16.90672 | 9372 ft | 279 kts | 164° |
| 2026-04-15 05:48 | -22.42396 | 16.91218 | 9382 ft | 270 kts | 164° |
| 2026-04-15 05:48 | -22.44161 | 16.91742 | 9393 ft | 265 kts | 164° |
| 2026-04-15 05:49 | -22.45942 | 16.92271 | 9386 ft | 266 kts | 164° |
| 2026-04-15 05:49 | -22.47732 | 16.92803 | 9375 ft | 267 kts | 164° |
| 2026-04-15 05:49 | -22.49525 | 16.93335 | 9373 ft | 267 kts | 164° |
| 2026-04-15 05:49 | -22.51321 | 16.93869 | 9500 ft | 267 kts | 164° |
| 2026-04-15 05:50 | -22.53116 | 16.94402 | 9513 ft | 267 kts | 164° |
| 2026-04-15 05:50 | -22.54905 | 16.94952 | 9516 ft | 267 kts | 160° |
| 2026-04-15 05:50 | -22.57563 | 16.97557 | 9544 ft | 262 kts | 114° |
| 2026-04-15 05:51 | -22.58220 | 16.99341 | 9548 ft | 247 kts | 105° |
| 2026-04-15 05:51 | -22.58643 | 17.01099 | 9556 ft | 238 kts | 100° |
| 2026-04-15 05:51 | -22.58955 | 17.02850 | 9546 ft | 237 kts | 97° |
| 2026-04-15 05:51 | -22.59231 | 17.04604 | 9551 ft | 237 kts | 97° |
| 2026-04-15 05:52 | -22.59509 | 17.06366 | 9549 ft | 238 kts | 98° |
| 2026-04-15 05:52 | -22.59805 | 17.08134 | 9549 ft | 240 kts | 98° |
| 2026-04-15 05:52 | -22.60121 | 17.09908 | 9546 ft | 240 kts | 99° |
| 2026-04-15 05:52 | -22.60452 | 17.11681 | 9550 ft | 240 kts | 99° |
| 2026-04-15 05:53 | -22.60789 | 17.13448 | 9546 ft | 240 kts | 99° |
| 2026-04-15 05:53 | -22.61120 | 17.15172 | 9546 ft | 226 kts | 98° |
| 2026-04-15 05:53 | -22.61249 | 17.16823 | 9398 ft | 219 kts | 86° |
| 2026-04-15 05:53 | -22.61002 | 17.18440 | 9117 ft | 216 kts | 71° |
| 2026-04-15 05:54 | -22.60503 | 17.19979 | 8797 ft | 215 kts | 65° |
| 2026-04-15 05:54 | -22.59909 | 17.21429 | 8603 ft | 207 kts | 62° |
| 2026-04-15 05:54 | -22.59274 | 17.22818 | 8325 ft | 205 kts | 60° |
| 2026-04-15 05:54 | -22.58616 | 17.24193 | 8216 ft | 206 kts | 60° |
| 2026-04-15 05:55 | -22.57953 | 17.25569 | 8200 ft | 206 kts | 60° |
| 2026-04-15 05:55 | -22.57297 | 17.26951 | 8192 ft | 206 kts | 61° |
| 2026-04-15 05:55 | -22.56648 | 17.28333 | 8184 ft | 206 kts | 61° |
| 2026-04-15 05:55 | -22.56002 | 17.29718 | 8176 ft | 206 kts | 61° |
| 2026-04-15 05:56 | -22.55359 | 17.31105 | 8167 ft | 206 kts | 61° |
| 2026-04-15 05:56 | -22.54723 | 17.32482 | 8112 ft | 201 kts | 61° |
| 2026-04-15 05:56 | -22.54110 | 17.33813 | 7918 ft | 194 kts | 62° |
| 2026-04-15 05:56 | -22.53517 | 17.35098 | 7623 ft | 187 kts | 62° |
| 2026-04-15 05:57 | -22.52957 | 17.36315 | 7392 ft | 174 kts | 62° |
| 2026-04-15 05:57 | -22.52440 | 17.37441 | 7164 ft | 162 kts | 62° |
| 2026-04-15 05:57 | -22.51951 | 17.38503 | 6933 ft | 153 kts | 62° |
| 2026-04-15 05:57 | -22.51476 | 17.39507 | 6711 ft | 148 kts | 60° |
| 2026-04-15 05:58 | -22.50986 | 17.40483 | 6495 ft | 147 kts | 62° |
| 2026-04-15 05:58 | -22.50549 | 17.41478 | 6318 ft | 147 kts | 64° |
| 2026-04-15 05:58 | -22.50116 | 17.42476 | 6152 ft | 146 kts | 63° |
| 2026-04-15 05:58 | -22.49653 | 17.43463 | 6023 ft | 148 kts | 63° |
| 2026-04-15 05:59 | -22.49198 | 17.44469 | 5800 ft | 149 kts | 63° |
| 2026-04-15 05:59 | -22.48736 | 17.45470 | 5633 ft | 148 kts | 63° |
| 2026-04-15 05:59 | -22.48317 | 17.46381 | 5606 ft | 121 kts | 63° |
| 2026-04-15 05:59 | -22.47984 | 17.47104 | 5582 ft | 95 kts | 63° |
| 2026-04-15 06:00 | -22.47753 | 17.47601 | 5573 ft | 37 kts | 63° |
| 2026-04-15 06:00 | -22.47655 | 17.47812 | 5570 ft | 18 kts | 63° |
| 2026-04-15 06:00 | -22.47642 | 17.47878 | 5568 ft | 8 kts | 109° |
| 2026-04-15 06:00 | -22.47692 | 17.47917 | 5570 ft | 10 kts | 167° |
| 2026-04-15 06:01 | -22.47745 | 17.47888 | 5569 ft | 8 kts | 232° |
| 2026-04-15 06:01 | -22.47771 | 17.47837 | 5568 ft | 7 kts | 243° |
| 2026-04-15 06:01 | -22.47791 | 17.47793 | 5572 ft | 6 kts | 243° |
| 2026-04-15 06:01 | -22.47809 | 17.47755 | 5573 ft | 5 kts | 243° |
| 2026-04-15 06:02 | -22.47825 | 17.47719 | 5571 ft | 7 kts | 244° |
| 2026-04-15 06:02 | -22.47851 | 17.47663 | 5572 ft | 10 kts | 244° |
| 2026-04-15 06:02 | -22.47885 | 17.47586 | 5575 ft | 13 kts | 244° |
| 2026-04-15 06:02 | -22.47925 | 17.47501 | 5576 ft | 12 kts | 243° |
| 2026-04-15 06:03 | -22.47960 | 17.47424 | 5577 ft | 11 kts | 243° |
| 2026-04-15 06:03 | -22.47993 | 17.47352 | 5578 ft | 10 kts | 243° |
| 2026-04-15 06:03 | -22.48025 | 17.47284 | 5580 ft | 10 kts | 243° |
| 2026-04-15 06:03 | -22.48054 | 17.47222 | 5582 ft | 8 kts | 243° |
| 2026-04-15 06:04 | -22.48078 | 17.47169 | 5583 ft | 9 kts | 243° |
| 2026-04-15 06:04 | -22.48111 | 17.47098 | 5583 ft | 13 kts | 243° |
| 2026-04-15 06:04 | -22.48154 | 17.47006 | 5582 ft | 14 kts | 243° |
| 2026-04-15 06:04 | -22.48196 | 17.46914 | 5584 ft | 13 kts | 243° |
| 2026-04-15 06:05 | -22.48235 | 17.46831 | 5587 ft | 12 kts | 243° |
| 2026-04-15 06:05 | -22.48270 | 17.46755 | 5597 ft | 11 kts | 243° |
| 2026-04-15 06:05 | -22.48305 | 17.46679 | 5602 ft | 12 kts | 243° |
| 2026-04-15 06:05 | -22.48341 | 17.46600 | 5600 ft | 12 kts | 243° |
| 2026-04-15 06:06 | -22.48379 | 17.46519 | 5605 ft | 13 kts | 243° |
| 2026-04-15 06:06 | -22.48420 | 17.46429 | 5609 ft | 14 kts | 245° |
| 2026-04-15 06:06 | -22.48460 | 17.46335 | 5605 ft | 13 kts | 245° |
| 2026-04-15 06:06 | -22.48499 | 17.46247 | 5610 ft | 12 kts | 243° |
| 2026-04-15 06:07 | -22.48535 | 17.46170 | 5613 ft | 11 kts | 243° |
| 2026-04-15 06:07 | -22.48566 | 17.46101 | 5613 ft | 10 kts | 243° |
| 2026-04-15 06:07 | -22.48595 | 17.46045 | 5615 ft | 7 kts | 226° |
| 2026-04-15 06:07 | -22.48628 | 17.46044 | 5619 ft | 5 kts | 160° |
| 2026-04-15 06:08 | -22.48665 | 17.46077 | 5618 ft | 8 kts | 134° |
| 2026-04-15 06:08 | -22.48704 | 17.46093 | 5615 ft | 2 kts | 213° |
| 2026-04-15 06:08 | -22.48707 | 17.46077 | 5619 ft | 3 kts | 264° |
| 2026-04-15 06:08 | -22.48698 | 17.46060 | 5617 ft | 0 kts | 306° |